DAL8806 KLAS-KMSP
Flight info
| Callsign | DAL8806 |
|---|---|
| Flight time | N/A |
| Altitude | 33000 |
| Route | GIDGT3 TUKRR DCT HBU DCT SNY DCT SSWAN TORGY4 |
| Aircraft | A321/M-SDE3FGHIRWY/LB1 |
Departure
| Time | 2026-05-06 17:48 |
|---|---|
| Airport | Harry Reid International Airport (KLAS) |
Arrival
| Time | N/A |
|---|---|
| Airport | Minneapolis–Saint Paul International Airport / Wold–Chamberlain Field (KMSP) |
| Time | Latitude | Longitude | Altitude | Speed | Heading |
|---|---|---|---|---|---|
| 2026-05-06 17:27 | 36.08525 | -115.13794 | 2085 ft | 0 kts | 1° |
| 2026-05-06 17:37 | 36.08517 | -115.13794 | 2084 ft | 4 kts | 3° |
| 2026-05-06 17:37 | 36.08491 | -115.13794 | 2085 ft | 4 kts | 11° |
| 2026-05-06 17:38 | 36.08470 | -115.13807 | 2086 ft | 4 kts | 63° |
| 2026-05-06 17:38 | 36.08466 | -115.13822 | 2086 ft | 1 kts | 89° |
| 2026-05-06 17:38 | 36.08466 | -115.13823 | 2086 ft | 0 kts | 89° |
| 2026-05-06 17:39 | 36.08466 | -115.13822 | 2086 ft | 1 kts | 89° |
| 2026-05-06 17:40 | 36.08467 | -115.13705 | 2086 ft | 28 kts | 89° |
| 2026-05-06 17:40 | 36.08423 | -115.13384 | 2087 ft | 34 kts | 131° |
| 2026-05-06 17:40 | 36.08249 | -115.13288 | 2099 ft | 30 kts | 178° |
| 2026-05-06 17:40 | 36.08030 | -115.13293 | 2115 ft | 33 kts | 180° |
| 2026-05-06 17:41 | 36.07849 | -115.13266 | 2123 ft | 22 kts | 131° |
| 2026-05-06 17:41 | 36.07834 | -115.13078 | 2120 ft | 31 kts | 96° |
| 2026-05-06 17:41 | 36.07826 | -115.12730 | 2115 ft | 35 kts | 91° |
| 2026-05-06 17:41 | 36.07810 | -115.12541 | 2117 ft | 16 kts | 80° |
| 2026-05-06 17:42 | 36.07818 | -115.12418 | 2118 ft | 13 kts | 88° |
| 2026-05-06 17:42 | 36.07820 | -115.12324 | 2118 ft | 5 kts | 89° |
| 2026-05-06 17:42 | 36.07820 | -115.12285 | 2118 ft | 4 kts | 92° |
| 2026-05-06 17:42 | 36.07820 | -115.12278 | 2118 ft | 0 kts | 94° |
| 2026-05-06 17:44 | 36.07819 | -115.12276 | 2118 ft | 1 kts | 98° |
| 2026-05-06 17:44 | 36.07805 | -115.12243 | 2119 ft | 4 kts | 122° |
| 2026-05-06 17:44 | 36.07793 | -115.12223 | 2119 ft | 3 kts | 128° |
| 2026-05-06 17:45 | 36.07758 | -115.12169 | 2122 ft | 13 kts | 128° |
| 2026-05-06 17:45 | 36.07664 | -115.12129 | 2126 ft | 15 kts | 200° |
| 2026-05-06 17:45 | 36.07642 | -115.12197 | 2125 ft | 0 kts | 269° |
| 2026-05-06 17:46 | 36.07643 | -115.12243 | 2124 ft | 25 kts | 271° |
| 2026-05-06 17:47 | 36.07643 | -115.12761 | 2123 ft | 92 kts | 270° |
| 2026-05-06 17:47 | 36.07636 | -115.13781 | 2124 ft | 143 kts | 269° |
| 2026-05-06 17:47 | 36.07638 | -115.15186 | 2128 ft | 182 kts | 269° |
| 2026-05-06 17:47 | 36.07649 | -115.16791 | 2596 ft | 183 kts | 271° |
| 2026-05-06 17:48 | 36.07682 | -115.18340 | 3225 ft | 182 kts | 270° |
| 2026-05-06 17:48 | 36.07679 | -115.19935 | 3797 ft | 184 kts | 270° |
| 2026-05-06 17:48 | 36.07669 | -115.21538 | 4055 ft | 192 kts | 270° |
| 2026-05-06 17:48 | 36.07660 | -115.23229 | 4173 ft | 208 kts | 270° |
| 2026-05-06 17:49 | 36.07652 | -115.25082 | 4336 ft | 223 kts | 270° |
| 2026-05-06 17:49 | 36.07845 | -115.26987 | 4656 ft | 226 kts | 295° |
| 2026-05-06 17:49 | 36.08876 | -115.28435 | 4950 ft | 235 kts | 333° |
| 2026-05-06 17:49 | 36.10461 | -115.29041 | 5223 ft | 244 kts | 347° |
| 2026-05-06 17:50 | 36.12130 | -115.29499 | 5814 ft | 247 kts | 348° |
| 2026-05-06 17:50 | 36.13841 | -115.29618 | 6485 ft | 249 kts | 10° |
| 2026-05-06 17:50 | 36.15452 | -115.28842 | 7083 ft | 254 kts | 32° |
| 2026-05-06 17:50 | 36.16715 | -115.27223 | 7404 ft | 272 kts | 58° |
| 2026-05-06 17:51 | 36.17570 | -115.25108 | 7983 ft | 278 kts | 67° |
| 2026-05-06 17:51 | 36.18265 | -115.22857 | 8639 ft | 280 kts | 66° |
| 2026-05-06 17:51 | 36.18977 | -115.20600 | 9321 ft | 282 kts | 66° |
| 2026-05-06 17:51 | 36.19525 | -115.18261 | 9973 ft | 287 kts | 78° |
| 2026-05-06 17:52 | 36.19626 | -115.15761 | 10430 ft | 297 kts | 86° |
| 2026-05-06 17:52 | 36.19631 | -115.13120 | 10548 ft | 318 kts | 87° |
| 2026-05-06 17:52 | 36.19633 | -115.10292 | 10646 ft | 337 kts | 87° |
| 2026-05-06 17:52 | 36.19633 | -115.07313 | 10770 ft | 355 kts | 87° |
| 2026-05-06 17:53 | 36.19635 | -115.04187 | 10897 ft | 372 kts | 87° |
| 2026-05-06 17:53 | 36.19634 | -115.00941 | 11276 ft | 380 kts | 87° |
| 2026-05-06 17:53 | 36.19629 | -114.97651 | 11834 ft | 383 kts | 87° |
| 2026-05-06 17:53 | 36.19623 | -114.94343 | 12403 ft | 386 kts | 87° |
| 2026-05-06 17:54 | 36.19620 | -114.91056 | 12943 ft | 388 kts | 87° |
| 2026-05-06 17:54 | 36.19616 | -114.87712 | 13495 ft | 390 kts | 87° |
| 2026-05-06 17:54 | 36.19611 | -114.84338 | 13977 ft | 393 kts | 87° |
| 2026-05-06 17:54 | 36.19606 | -114.80897 | 14433 ft | 396 kts | 87° |
| 2026-05-06 17:55 | 36.19600 | -114.77485 | 14880 ft | 398 kts | 87° |
| 2026-05-06 17:55 | 36.19593 | -114.74049 | 15332 ft | 400 kts | 87° |
| 2026-05-06 17:55 | 36.19586 | -114.70649 | 15782 ft | 402 kts | 87° |
| 2026-05-06 17:55 | 36.19578 | -114.67179 | 16248 ft | 403 kts | 87° |
| 2026-05-06 17:56 | 36.19570 | -114.63692 | 16700 ft | 406 kts | 87° |
| 2026-05-06 17:56 | 36.19561 | -114.60190 | 17118 ft | 408 kts | 87° |
| 2026-05-06 17:56 | 36.19554 | -114.56664 | 17548 ft | 410 kts | 87° |
| 2026-05-06 17:56 | 36.19546 | -114.53121 | 17997 ft | 412 kts | 86° |
| 2026-05-06 17:57 | 36.19534 | -114.49571 | 18395 ft | 414 kts | 86° |
| 2026-05-06 17:57 | 36.19519 | -114.45994 | 18746 ft | 416 kts | 87° |
| 2026-05-06 17:57 | 36.19505 | -114.42399 | 19134 ft | 418 kts | 86° |
| 2026-05-06 17:57 | 36.19494 | -114.38789 | 19508 ft | 420 kts | 86° |
| 2026-05-06 17:58 | 36.19481 | -114.35159 | 19868 ft | 423 kts | 87° |
| 2026-05-06 17:58 | 36.19463 | -114.31508 | 20222 ft | 425 kts | 87° |
| 2026-05-06 17:58 | 36.19442 | -114.27840 | 20583 ft | 427 kts | 87° |
| 2026-05-06 17:58 | 36.19470 | -114.24156 | 20952 ft | 427 kts | 83° |
| 2026-05-06 17:59 | 36.19844 | -114.20506 | 21297 ft | 428 kts | 78° |
| 2026-05-06 17:59 | 36.20289 | -114.16861 | 21638 ft | 430 kts | 78° |
| 2026-05-06 17:59 | 36.20734 | -114.13192 | 21977 ft | 432 kts | 78° |
| 2026-05-06 17:59 | 36.21178 | -114.09497 | 22321 ft | 434 kts | 78° |
| 2026-05-06 18:00 | 36.21618 | -114.05797 | 22670 ft | 436 kts | 78° |
| 2026-05-06 18:00 | 36.22059 | -114.02066 | 22998 ft | 439 kts | 78° |
| 2026-05-06 18:00 | 36.22501 | -113.98325 | 23325 ft | 441 kts | 78° |
| 2026-05-06 18:00 | 36.22945 | -113.94549 | 23636 ft | 443 kts | 78° |
| 2026-05-06 18:01 | 36.23391 | -113.90763 | 23921 ft | 445 kts | 78° |
| 2026-05-06 18:01 | 36.23837 | -113.86958 | 24204 ft | 447 kts | 78° |
| 2026-05-06 18:01 | 36.24282 | -113.83150 | 24488 ft | 448 kts | 78° |
| 2026-05-06 18:01 | 36.24729 | -113.79325 | 24776 ft | 449 kts | 78° |
| 2026-05-06 18:02 | 36.25177 | -113.75491 | 25058 ft | 450 kts | 78° |
| 2026-05-06 18:02 | 36.25622 | -113.71645 | 25347 ft | 452 kts | 78° |
| 2026-05-06 18:02 | 36.26067 | -113.67784 | 25628 ft | 453 kts | 78° |
| 2026-05-06 18:02 | 36.26511 | -113.63919 | 25910 ft | 454 kts | 78° |
| 2026-05-06 18:03 | 36.26959 | -113.60025 | 26233 ft | 454 kts | 78° |
| 2026-05-06 18:03 | 36.27404 | -113.56159 | 26623 ft | 452 kts | 78° |
| 2026-05-06 18:03 | 36.27846 | -113.52311 | 27010 ft | 450 kts | 78° |
| 2026-05-06 18:03 | 36.28287 | -113.48468 | 27398 ft | 449 kts | 77° |
| 2026-05-06 18:04 | 36.28722 | -113.44650 | 27742 ft | 447 kts | 77° |
| 2026-05-06 18:04 | 36.29009 | -113.42126 | 28018 ft | 446 kts | 77° |
| 2026-05-06 18:04 | 36.29440 | -113.38330 | 28388 ft | 445 kts | 77° |
| 2026-05-06 18:04 | 36.30006 | -113.33310 | 28893 ft | 442 kts | 77° |
| 2026-05-06 18:05 | 36.30428 | -113.29540 | 29252 ft | 441 kts | 77° |
| 2026-05-06 18:05 | 36.30852 | -113.25780 | 29603 ft | 439 kts | 77° |
| 2026-05-06 18:05 | 36.31495 | -113.22124 | 29974 ft | 432 kts | 69° |
| 2026-05-06 18:05 | 36.32173 | -113.19765 | 30179 ft | 427 kts | 63° |
| 2026-05-06 18:06 | 36.33364 | -113.16401 | 30445 ft | 426 kts | 62° |
| 2026-05-06 18:06 | 36.34553 | -113.13045 | 30749 ft | 424 kts | 62° |
| 2026-05-06 18:06 | 36.35733 | -113.09698 | 31073 ft | 423 kts | 62° |
| 2026-05-06 18:06 | 36.36907 | -113.06363 | 31387 ft | 421 kts | 62° |
| 2026-05-06 18:07 | 36.38076 | -113.03039 | 31697 ft | 419 kts | 62° |
| 2026-05-06 18:07 | 36.39239 | -112.99736 | 31982 ft | 418 kts | 62° |
| 2026-05-06 18:07 | 36.40400 | -112.96430 | 32293 ft | 416 kts | 62° |
| 2026-05-06 18:07 | 36.41551 | -112.93144 | 32617 ft | 414 kts | 62° |
| 2026-05-06 18:08 | 36.42694 | -112.89871 | 32927 ft | 413 kts | 62° |
| 2026-05-06 18:08 | 36.43835 | -112.86598 | 33013 ft | 411 kts | 62° |
| 2026-05-06 18:08 | 36.46097 | -112.80099 | 33024 ft | 410 kts | 62° |
| 2026-05-06 18:09 | 36.48352 | -112.73645 | 33025 ft | 409 kts | 62° |
| 2026-05-06 18:09 | 36.50625 | -112.67110 | 33024 ft | 409 kts | 62° |
| 2026-05-06 18:10 | 36.52868 | -112.60662 | 33021 ft | 409 kts | 62° |
| 2026-05-06 18:10 | 36.55125 | -112.54165 | 33010 ft | 409 kts | 62° |
| 2026-05-06 18:11 | 36.57381 | -112.47661 | 33014 ft | 409 kts | 62° |
| 2026-05-06 18:11 | 36.59620 | -112.41146 | 33025 ft | 410 kts | 61° |
| 2026-05-06 18:12 | 36.61834 | -112.34686 | 33019 ft | 410 kts | 61° |
| 2026-05-06 18:12 | 36.64044 | -112.28245 | 33007 ft | 410 kts | 61° |
| 2026-05-06 18:13 | 36.66257 | -112.21788 | 33003 ft | 410 kts | 61° |
| 2026-05-06 18:13 | 36.68475 | -112.15302 | 32989 ft | 410 kts | 61° |
| 2026-05-06 18:14 | 36.70689 | -112.08810 | 33002 ft | 411 kts | 61° |
| 2026-05-06 18:14 | 36.72898 | -112.02308 | 32964 ft | 411 kts | 61° |
| 2026-05-06 18:15 | 36.75131 | -111.95742 | 32963 ft | 411 kts | 61° |
| 2026-05-06 18:15 | 36.77366 | -111.89165 | 32939 ft | 412 kts | 61° |
| 2026-05-06 18:16 | 36.79589 | -111.82573 | 32951 ft | 413 kts | 62° |
| 2026-05-06 18:16 | 36.81816 | -111.75966 | 32942 ft | 413 kts | 61° |
| 2026-05-06 18:17 | 36.84048 | -111.69337 | 32934 ft | 414 kts | 62° |
| 2026-05-06 18:17 | 36.86295 | -111.62714 | 32923 ft | 414 kts | 60° |
| 2026-05-06 18:18 | 36.88723 | -111.56219 | 33056 ft | 412 kts | 58° |
| 2026-05-06 18:18 | 36.91187 | -111.49753 | 33076 ft | 413 kts | 60° |
| 2026-05-06 18:19 | 36.93587 | -111.43230 | 33074 ft | 412 kts | 59° |
| 2026-05-06 18:19 | 36.96009 | -111.36748 | 33075 ft | 411 kts | 59° |
| 2026-05-06 18:20 | 36.98432 | -111.30269 | 33046 ft | 411 kts | 59° |
| 2026-05-06 18:20 | 37.00840 | -111.23779 | 33010 ft | 412 kts | 59° |
| 2026-05-06 18:21 | 37.03240 | -111.17260 | 32979 ft | 413 kts | 58° |
| 2026-05-06 18:21 | 37.05636 | -111.10711 | 32978 ft | 414 kts | 59° |
| 2026-05-06 18:22 | 37.08032 | -111.04172 | 32920 ft | 414 kts | 59° |
| 2026-05-06 18:22 | 37.10433 | -110.97615 | 32921 ft | 414 kts | 59° |
| 2026-05-06 18:23 | 37.12829 | -110.91044 | 32917 ft | 414 kts | 59° |
| 2026-05-06 18:23 | 37.15223 | -110.84475 | 32913 ft | 416 kts | 59° |
| 2026-05-06 18:24 | 37.17621 | -110.77873 | 32942 ft | 416 kts | 59° |
| 2026-05-06 18:24 | 37.20021 | -110.71259 | 32927 ft | 417 kts | 59° |
| 2026-05-06 18:25 | 37.22421 | -110.64620 | 32902 ft | 417 kts | 59° |
| 2026-05-06 18:25 | 37.24819 | -110.57977 | 32925 ft | 419 kts | 59° |
| 2026-05-06 18:26 | 37.27222 | -110.51313 | 32902 ft | 419 kts | 59° |
| 2026-05-06 18:26 | 37.29623 | -110.44637 | 32951 ft | 421 kts | 59° |
| 2026-05-06 18:27 | 37.32032 | -110.37928 | 32923 ft | 421 kts | 59° |
| 2026-05-06 18:27 | 37.34431 | -110.31214 | 32949 ft | 421 kts | 59° |
| 2026-05-06 18:28 | 37.36820 | -110.24506 | 32960 ft | 420 kts | 59° |
| 2026-05-06 18:28 | 37.39220 | -110.17809 | 32973 ft | 419 kts | 59° |
| 2026-05-06 18:29 | 37.41603 | -110.11120 | 32979 ft | 419 kts | 59° |
| 2026-05-06 18:29 | 37.43986 | -110.04408 | 32957 ft | 421 kts | 59° |
| 2026-05-06 18:30 | 37.46368 | -109.97667 | 32951 ft | 421 kts | 59° |
| 2026-05-06 18:30 | 37.48749 | -109.90925 | 32946 ft | 422 kts | 59° |
| 2026-05-06 18:31 | 37.51135 | -109.84172 | 32961 ft | 422 kts | 59° |
| 2026-05-06 18:31 | 37.53518 | -109.77406 | 33000 ft | 423 kts | 59° |
| 2026-05-06 18:32 | 37.55900 | -109.70604 | 32966 ft | 425 kts | 59° |
| 2026-05-06 18:32 | 37.57095 | -109.67187 | 33075 ft | 428 kts | 59° |
| 2026-05-06 18:32 | 37.58297 | -109.63755 | 33091 ft | 428 kts | 60° |
| 2026-05-06 18:33 | 37.60701 | -109.56869 | 33102 ft | 429 kts | 59° |
| 2026-05-06 18:33 | 37.63110 | -109.49967 | 33110 ft | 430 kts | 59° |
| 2026-05-06 18:34 | 37.65490 | -109.43106 | 33134 ft | 431 kts | 60° |
| 2026-05-06 18:34 | 37.67895 | -109.36156 | 33092 ft | 432 kts | 60° |
| 2026-05-06 18:35 | 37.70300 | -109.29190 | 33064 ft | 433 kts | 60° |
| 2026-05-06 18:35 | 37.72710 | -109.22205 | 33038 ft | 434 kts | 60° |
| 2026-05-06 18:36 | 37.75128 | -109.15200 | 33015 ft | 435 kts | 60° |
| 2026-05-06 18:36 | 37.77543 | -109.08190 | 33039 ft | 435 kts | 60° |
| 2026-05-06 18:37 | 37.79542 | -109.02359 | 33038 ft | 433 kts | 60° |
| 2026-05-06 18:37 | 37.82351 | -108.94136 | 33026 ft | 434 kts | 60° |
| 2026-05-06 18:38 | 37.84732 | -108.87140 | 33026 ft | 434 kts | 60° |
| 2026-05-06 18:38 | 37.87127 | -108.80124 | 33005 ft | 433 kts | 60° |
| 2026-05-06 18:39 | 37.89508 | -108.73126 | 33024 ft | 434 kts | 60° |
| 2026-05-06 18:40 | 37.93092 | -108.62566 | 33017 ft | 436 kts | 60° |
| 2026-05-06 18:40 | 37.95475 | -108.55486 | 33024 ft | 437 kts | 60° |
| 2026-05-06 18:41 | 37.97856 | -108.48392 | 33024 ft | 438 kts | 61° |
| 2026-05-06 18:41 | 38.00251 | -108.41274 | 33079 ft | 439 kts | 61° |
| 2026-05-06 18:42 | 38.02646 | -108.34139 | 33048 ft | 441 kts | 61° |
| 2026-05-06 18:42 | 38.05046 | -108.26965 | 33036 ft | 444 kts | 61° |
| 2026-05-06 18:43 | 38.06441 | -108.22753 | 33034 ft | 444 kts | 61° |
| 2026-05-06 18:46 | 38.08205 | -108.18035 | 33027 ft | 442 kts | 59° |
| 2026-05-06 18:47 | 38.10574 | -108.10860 | 33052 ft | 444 kts | 62° |
| 2026-05-06 18:47 | 38.12842 | -108.03535 | 33056 ft | 446 kts | 62° |
| 2026-05-06 18:48 | 38.15180 | -107.96256 | 33062 ft | 444 kts | 61° |
| 2026-05-06 18:48 | 38.17589 | -107.89028 | 33070 ft | 444 kts | 61° |